La Tontouta International Airport
NWWW : rendu visible

Aérodrome :











RETROUVEZ-NOUS SUR...

 
LOGIN :

S'inscrire | Disclaimer

   EN    FR    IT 

 









Légende :    VFR   VFR Marginal   IFR   IFR Intensif   IFR Très Intensif
Visi : 
Plafond : 
>= 8 km
>= 3000ft
5 à 8 km
1000 à 3000 ft
1500m à 5 km
500 à 1000 ft
800 à 1500m
200 à 500 ft
< 800m
< 200 ft
Symboles :   Orages  Brouillard  Fortes neiges  Fortes précipitations  Vent > 20 kt






- Altitude de l'aérodrome : 52 ft
- Code IATA : NOU


NWWW - La Tontouta International

DERNIER METAR :
  • 310130Z AUTO 14010KT 9999 FEW032 SCT050 24/19 Q1016 TEMPO 4000 SHRA BKN014 FEW020CB

METARs EXPIRÉS :
  • 310100Z AUTO 15008KT 130V190 9999 FEW021 SCT028 BKN037 23/20 Q1016 TEMPO 4000 SHRA BKN014 FEW020CB
  • 310030Z AUTO 17008KT 9999 BKN020 BKN025 OVC030 24/20 Q1017 TEMPO 4000 SHRA BKN014 FEW020CB
  • 310000Z AUTO 15008KT 9999 FEW016 BKN024 BKN046 24/20 Q1017 TEMPO 4000 SHRA BKN014 FEW020CB
  • 302330Z AUTO 14007KT 9999 FEW014 BKN035 OVC046 23/20 Q1017 NOSIG
  • 302300Z AUTO 14006KT 100V160 9999 FEW015 BKN035 OVC050 23/21 Q1018 NOSIG
  • 302230Z AUTO 16003KT 090V200 9999 FEW009 BKN014 OVC035 22/21 Q1017 BECMG SCT023 SCT045

TAF TAF NWWW
Valide du 31 à 00h jusqu'au 01 à 00h UTC


302300Z 3100/3124 14010KT 9999 SCT025 SCT035
TEMPO 3100/3106 4000 SHRA BKN014 FEW020CB
BECMG 3107/3109 VRB02KT
FIR NFFF / Océanie



MET'MAP, la Météo Aéronautique d'un coup d'oeil ! - Copyright ORBIFLY Décembre 2007 - Disclaimer

ORBIFLY MET'MAP TEAM :

Programmation & Développement : Alexandra Zaïnal
Sur une idée originale de : Baudouin d'Aumeries
Assistance à la programmation : Marc-Olivier Méhu
Soutien technique & logistique : Manuel Goepfert

Contact : metmap@orbifly.com




SOURCES & CREDITS :

   NOAA       Earth
Advisory